createdAt,value
2018-06-17T00:02:19.727Z,18.20
2018-06-17T00:04:47.990Z,18.30
2018-06-17T00:07:16.246Z,18.30
2018-06-17T00:09:44.540Z,18.20
2018-06-17T00:12:12.809Z,18.20
2018-06-17T00:14:41.127Z,18.00
2018-06-17T00:17:09.412Z,18.00
2018-06-17T00:19:37.668Z,18.00
2018-06-17T00:22:05.938Z,17.90
2018-06-17T00:24:34.239Z,18.00
2018-06-17T00:27:02.538Z,17.90
2018-06-17T00:29:30.867Z,17.90
2018-06-17T00:31:59.175Z,17.90
2018-06-17T00:34:27.430Z,17.90
2018-06-17T00:36:55.683Z,17.90
2018-06-17T00:39:23.942Z,17.80
2018-06-17T00:41:52.196Z,17.80
2018-06-17T00:44:20.441Z,17.80
2018-06-17T00:46:48.691Z,17.70
2018-06-17T00:49:17.012Z,17.70
2018-06-17T00:51:45.335Z,17.70
2018-06-17T00:54:13.637Z,17.60
2018-06-17T00:56:41.982Z,17.50
2018-06-17T01:01:38.199Z,17.40
2018-06-17T01:04:06.477Z,17.50
2018-06-17T01:06:34.723Z,17.50
2018-06-17T01:09:03.015Z,17.50
2018-06-17T01:11:31.304Z,17.50
2018-06-17T01:13:59.568Z,17.50
2018-06-17T01:16:28.522Z,17.40
2018-06-17T01:18:56.880Z,17.50
2018-06-17T01:21:25.137Z,17.40
2018-06-17T01:23:53.395Z,17.40
2018-06-17T01:26:21.694Z,17.20
2018-06-17T01:28:50.126Z,17.30
2018-06-17T01:31:18.371Z,17.20
2018-06-17T01:33:46.683Z,17.30
2018-06-17T01:36:14.964Z,17.30
2018-06-17T01:38:43.295Z,17.30
2018-06-17T01:43:39.576Z,17.20
2018-06-17T01:46:07.834Z,17.10
2018-06-17T01:48:36.076Z,17.10
2018-06-17T01:51:04.483Z,17.20
2018-06-17T01:53:32.840Z,17.20
2018-06-17T01:58:30.082Z,17.20
2018-06-17T02:00:58.369Z,17.10
2018-06-17T02:03:32.072Z,17.00
2018-06-17T02:06:05.753Z,17.00
2018-06-17T02:08:39.441Z,16.90
2018-06-17T02:11:39.643Z,16.90
2018-06-17T02:14:13.417Z,16.90
2018-06-17T02:19:11.032Z,17.00
2018-06-17T02:21:39.624Z,17.00
2018-06-17T02:24:08.269Z,17.00
2018-06-17T02:29:04.535Z,17.00
2018-06-17T02:31:33.011Z,17.00
2018-06-17T02:34:01.422Z,17.00
2018-06-17T02:36:30.651Z,17.00
2018-06-17T02:38:58.895Z,17.00
2018-06-17T02:41:27.179Z,17.00
2018-06-17T02:43:55.526Z,17.00
2018-06-17T02:46:29.290Z,17.10
2018-06-17T02:51:36.684Z,17.10
2018-06-17T02:54:10.352Z,17.10
2018-06-17T02:56:38.634Z,17.00
2018-06-17T02:59:06.861Z,17.10
2018-06-17T03:01:35.111Z,17.00
2018-06-17T03:04:03.414Z,17.00
2018-06-17T03:06:31.660Z,16.90
2018-06-17T03:08:59.962Z,16.90
2018-06-17T03:13:56.176Z,16.70
2018-06-17T03:16:24.439Z,16.80
2018-06-17T03:18:52.703Z,16.90
2018-06-17T03:21:20.988Z,16.90
2018-06-17T03:23:49.303Z,17.00
2018-06-17T03:26:22.975Z,17.10
2018-06-17T03:28:56.852Z,17.10
2018-06-17T03:31:25.132Z,17.20
2018-06-17T03:33:54.973Z,17.20
2018-06-17T03:36:23.274Z,17.30
2018-06-17T03:38:51.652Z,17.30
2018-06-17T03:41:19.931Z,17.30
2018-06-17T03:43:48.203Z,17.30
2018-06-17T03:46:16.506Z,17.40
2018-06-17T03:48:44.785Z,17.30
2018-06-17T03:51:13.061Z,17.00
2018-06-17T03:53:41.335Z,16.90
2018-06-17T03:56:09.666Z,17.00
2018-06-17T03:58:37.947Z,17.20
2018-06-17T04:01:06.236Z,17.20
2018-06-17T04:03:34.496Z,17.20
2018-06-17T04:06:02.800Z,17.40
2018-06-17T04:10:59.120Z,17.20
2018-06-17T04:13:27.477Z,17.20
2018-06-17T04:15:55.788Z,17.20
2018-06-17T04:18:24.075Z,17.30
2018-06-17T04:20:53.239Z,17.30
2018-06-17T04:23:21.521Z,17.40
2018-06-17T04:25:49.773Z,17.40
2018-06-17T04:28:18.082Z,17.40
2018-06-17T04:30:46.341Z,17.40
2018-06-17T04:33:14.623Z,17.30
2018-06-17T04:35:42.876Z,17.40
2018-06-17T04:38:11.130Z,17.50
2018-06-17T04:40:39.387Z,17.70
2018-06-17T04:43:07.647Z,17.90
2018-06-17T04:45:35.948Z,18.00
2018-06-17T04:48:04.230Z,17.90
2018-06-17T04:50:32.540Z,17.90
2018-06-17T04:53:00.763Z,17.80
2018-06-17T04:57:57.122Z,18.00
2018-06-17T05:00:25.402Z,18.10
2018-06-17T05:02:53.703Z,18.10
2018-06-17T05:05:21.955Z,18.20
2018-06-17T05:07:50.381Z,18.20
2018-06-17T05:10:18.628Z,18.30
2018-06-17T05:12:46.899Z,18.40
2018-06-17T05:15:15.145Z,18.50
2018-06-17T05:17:43.445Z,18.50
2018-06-17T05:20:12.080Z,18.70
2018-06-17T05:22:40.395Z,18.90
2018-06-17T05:25:08.689Z,19.10
2018-06-17T05:27:36.959Z,19.10
2018-06-17T05:30:05.478Z,18.90
2018-06-17T05:32:33.751Z,19.10
2018-06-17T05:35:02.063Z,19.30
2018-06-17T05:37:30.319Z,19.60
2018-06-17T05:39:58.614Z,19.70
2018-06-17T05:42:26.881Z,19.90
2018-06-17T05:44:55.302Z,20.20
2018-06-17T05:47:23.565Z,20.30
2018-06-17T05:49:51.902Z,20.50
2018-06-17T05:52:20.180Z,20.40
2018-06-17T05:54:48.457Z,20.60
2018-06-17T05:57:16.759Z,20.70
2018-06-17T05:59:45.026Z,20.40
2018-06-17T06:02:13.302Z,20.20
2018-06-17T06:04:41.556Z,20.20
2018-06-17T06:07:09.843Z,20.20
2018-06-17T06:09:38.130Z,20.00
2018-06-17T06:12:06.441Z,20.00
2018-06-17T06:14:34.720Z,20.00
2018-06-17T06:17:02.952Z,20.20
2018-06-17T06:19:31.179Z,20.10
2018-06-17T06:21:59.504Z,20.40
2018-06-17T06:24:27.795Z,20.60
2018-06-17T06:29:24.069Z,20.50
2018-06-17T06:31:52.286Z,20.60
2018-06-17T06:34:20.564Z,20.60
2018-06-17T06:36:48.861Z,20.50
2018-06-17T06:39:17.155Z,20.20
2018-06-17T06:41:45.536Z,20.30
2018-06-17T06:49:09.792Z,21.00
2018-06-17T06:51:38.045Z,21.30
2018-06-17T06:54:06.303Z,21.00
2018-06-17T06:56:34.617Z,20.70
2018-06-17T06:59:02.948Z,20.70
2018-06-17T07:01:42.632Z,20.60
2018-06-17T07:04:22.303Z,20.60
2018-06-17T07:07:02.022Z,20.50
2018-06-17T07:09:40.550Z,20.80
2018-06-17T07:12:08.810Z,21.30
2018-06-17T07:14:37.029Z,21.90
2018-06-17T07:17:16.687Z,22.20
2018-06-17T07:22:13.012Z,23.00
2018-06-17T07:24:41.307Z,23.20
2018-06-17T07:27:20.880Z,23.40
2018-06-17T07:29:49.185Z,23.60
2018-06-17T07:32:17.436Z,23.70
2018-06-17T07:34:45.729Z,23.80
2018-06-17T07:37:13.968Z,23.80
2018-06-17T07:40:53.540Z,24.10
2018-06-17T07:43:21.851Z,24.50
2018-06-17T07:45:50.183Z,24.20
2018-06-17T07:48:29.993Z,23.60
2018-06-17T07:51:09.663Z,23.60
2018-06-17T07:53:37.955Z,23.90
2018-06-17T07:56:07.074Z,24.30
2018-06-17T07:58:35.295Z,24.30
2018-06-17T08:03:31.565Z,24.80
2018-06-17T08:05:59.844Z,24.30
2018-06-17T08:08:28.136Z,24.70
2018-06-17T08:10:56.406Z,25.20
2018-06-17T08:13:24.705Z,25.20
2018-06-17T08:15:53.033Z,25.20
2018-06-17T08:20:49.967Z,26.70
2018-06-17T08:23:18.257Z,25.70
2018-06-17T08:25:46.534Z,25.60
2018-06-17T08:30:42.787Z,25.10
2018-06-17T08:35:39.058Z,24.40
2018-06-17T08:38:07.336Z,24.70
2018-06-17T08:40:35.659Z,25.70
2018-06-17T08:43:03.944Z,26.10
2018-06-17T08:45:32.428Z,27.10
2018-06-17T08:48:00.713Z,26.90
2018-06-17T08:50:28.933Z,27.40
2018-06-17T08:52:57.231Z,27.50
2018-06-17T08:55:25.477Z,27.70
2018-06-17T08:57:53.777Z,26.80
2018-06-17T09:00:22.024Z,26.50
2018-06-17T09:02:50.277Z,26.50
2018-06-17T09:05:18.569Z,26.30
2018-06-17T09:07:46.821Z,26.60
2018-06-17T09:10:21.550Z,27.00
2018-06-17T09:15:17.891Z,26.00
2018-06-17T09:17:46.140Z,25.30
2018-06-17T09:20:14.436Z,26.00
2018-06-17T09:22:42.734Z,26.10
2018-06-17T09:25:11.056Z,26.00
2018-06-17T09:27:39.263Z,26.00
2018-06-17T09:30:07.560Z,26.10
2018-06-17T09:37:31.736Z,28.20
2018-06-17T09:40:00.030Z,28.50
2018-06-17T09:44:56.989Z,29.10
2018-06-17T09:47:25.300Z,28.60
2018-06-17T09:49:53.555Z,27.90
2018-06-17T09:52:21.853Z,27.60
2018-06-17T09:54:50.172Z,28.00
2018-06-17T09:57:18.468Z,28.30
2018-06-17T09:59:46.774Z,28.50
2018-06-17T10:02:14.995Z,28.20
2018-06-17T10:04:43.291Z,27.60
2018-06-17T10:07:11.819Z,27.10
2018-06-17T10:09:50.970Z,26.50
2018-06-17T10:12:20.008Z,26.10
2018-06-17T10:17:16.276Z,25.90
2018-06-17T10:19:44.659Z,26.40
2018-06-17T10:22:12.976Z,27.20
2018-06-17T10:24:41.311Z,27.30
2018-06-17T10:27:09.619Z,26.70
2018-06-17T10:29:37.945Z,26.60
2018-06-17T10:32:06.233Z,27.00
2018-06-17T10:37:02.558Z,26.20
2018-06-17T10:39:30.843Z,26.60
2018-06-17T10:44:27.132Z,27.50
2018-06-17T10:46:55.424Z,28.80
2018-06-17T10:49:23.701Z,29.80
2018-06-17T10:51:51.984Z,29.20
2018-06-17T10:54:20.242Z,29.20
2018-06-17T10:56:48.544Z,27.90
2018-06-17T10:59:16.844Z,28.30
2018-06-17T11:01:45.103Z,29.30
2018-06-17T11:04:13.347Z,28.40
2018-06-17T11:06:41.666Z,28.10
2018-06-17T11:09:09.938Z,28.10
2018-06-17T11:11:38.210Z,27.70
2018-06-17T11:14:06.496Z,27.60
2018-06-17T11:16:35.610Z,27.40
2018-06-17T11:19:03.971Z,26.30
2018-06-17T11:21:32.315Z,26.00
2018-06-17T11:24:00.580Z,26.00
2018-06-17T11:26:28.852Z,26.70
2018-06-17T11:28:57.134Z,27.40
2018-06-17T11:31:25.439Z,27.90
2018-06-17T11:33:53.705Z,27.40
2018-06-17T11:36:22.007Z,26.10
2018-06-17T11:38:50.516Z,25.80
2018-06-17T11:43:46.809Z,25.60
2018-06-17T11:46:15.070Z,25.10
2018-06-17T11:48:43.403Z,25.30
2018-06-17T11:51:11.694Z,24.70
2018-06-17T11:53:39.977Z,24.60
2018-06-17T11:56:08.279Z,24.80
2018-06-17T11:58:36.564Z,25.20
2018-06-17T12:01:04.978Z,25.30
2018-06-17T12:06:01.267Z,24.30
2018-06-17T12:08:29.539Z,24.10
2018-06-17T12:10:57.835Z,24.20
2018-06-17T12:13:26.164Z,23.90
2018-06-17T12:18:22.481Z,23.90
2018-06-17T12:20:50.788Z,23.90
2018-06-17T12:25:47.104Z,23.60
2018-06-17T12:28:15.512Z,23.60
2018-06-17T12:30:43.883Z,23.40
2018-06-17T12:35:40.176Z,23.10
2018-06-17T12:38:08.475Z,23.00
2018-06-17T12:40:36.826Z,23.20
2018-06-17T12:43:05.153Z,22.90
2018-06-17T12:45:33.493Z,22.90
2018-06-17T12:48:01.858Z,22.70
2018-06-17T12:50:31.040Z,23.10
2018-06-17T12:52:59.723Z,22.70
2018-06-17T12:55:27.988Z,22.50
2018-06-17T12:57:56.387Z,23.00
2018-06-17T13:00:24.687Z,23.10
2018-06-17T13:02:53.019Z,22.80
2018-06-17T13:05:21.375Z,22.40
2018-06-17T13:07:50.126Z,22.40
2018-06-17T13:10:18.406Z,21.90
2018-06-17T13:12:46.772Z,21.70
2018-06-17T13:15:15.063Z,22.00
2018-06-17T13:17:43.384Z,22.10
2018-06-17T13:22:40.360Z,21.50
2018-06-17T13:25:08.796Z,21.40
2018-06-17T13:27:37.129Z,21.20
2018-06-17T13:30:05.565Z,21.30
2018-06-17T13:32:33.844Z,21.10
2018-06-17T13:35:02.436Z,21.20
2018-06-17T13:37:30.699Z,21.40
2018-06-17T13:39:58.953Z,21.50
2018-06-17T13:42:27.327Z,21.50
2018-06-17T13:44:56.248Z,21.60
2018-06-17T13:47:24.512Z,21.60
2018-06-17T13:49:52.807Z,21.40
2018-06-17T13:54:49.319Z,21.50
2018-06-17T13:57:17.604Z,21.50
2018-06-17T13:59:45.906Z,21.40
2018-06-17T14:02:14.699Z,21.50
2018-06-17T14:04:43.015Z,22.20
2018-06-17T14:07:11.308Z,22.40
2018-06-17T14:09:40.263Z,23.00
2018-06-17T14:12:09.281Z,22.90
2018-06-17T14:14:37.600Z,23.20
2018-06-17T14:17:05.850Z,23.10
2018-06-17T14:19:34.160Z,23.00
2018-06-17T14:22:02.508Z,22.80
2018-06-17T14:24:30.800Z,22.90
2018-06-17T14:26:59.092Z,23.00
2018-06-17T14:29:27.364Z,22.70
2018-06-17T14:31:55.838Z,22.30
2018-06-17T14:34:24.249Z,22.50
2018-06-17T14:39:20.760Z,21.80
2018-06-17T14:41:54.458Z,22.00
2018-06-17T14:44:28.317Z,21.90
2018-06-17T14:47:02.141Z,22.00
2018-06-17T14:49:35.730Z,22.30
2018-06-17T14:53:07.843Z,22.30
2018-06-17T14:55:36.210Z,22.10
2018-06-17T14:58:05.052Z,22.30
2018-06-17T15:00:33.419Z,22.40
2018-06-17T15:05:29.702Z,21.80
2018-06-17T15:07:58.067Z,21.50
2018-06-17T15:10:26.384Z,21.50
2018-06-17T15:12:54.717Z,21.60
2018-06-17T15:15:22.965Z,21.30
2018-06-17T15:17:51.289Z,21.10
2018-06-17T15:20:19.602Z,21.10
2018-06-17T15:22:47.849Z,21.40
2018-06-17T15:25:16.157Z,21.50
2018-06-17T15:27:45.013Z,21.70
2018-06-17T15:30:14.068Z,21.70
2018-06-17T15:32:47.891Z,21.50
2018-06-17T15:35:21.643Z,21.40
2018-06-17T15:37:55.269Z,21.10
2018-06-17T15:40:28.917Z,20.90
2018-06-17T15:42:57.201Z,21.00
2018-06-17T15:45:25.512Z,20.90
2018-06-17T15:47:53.805Z,20.80
2018-06-17T15:50:22.100Z,20.50
2018-06-17T15:52:50.358Z,20.30
2018-06-17T15:55:19.586Z,20.30
2018-06-17T15:57:47.931Z,20.20
2018-06-17T16:00:16.258Z,19.90
2018-06-17T16:02:44.795Z,20.20
2018-06-17T16:05:13.421Z,20.30
2018-06-17T16:07:41.711Z,20.30
2018-06-17T16:10:10.015Z,20.40
2018-06-17T16:12:43.697Z,20.50
2018-06-17T16:15:17.563Z,20.30
2018-06-17T16:17:51.395Z,20.30
2018-06-17T16:20:25.073Z,20.50
2018-06-17T16:22:53.339Z,20.70
2018-06-17T16:27:49.674Z,20.70
2018-06-17T16:30:17.983Z,20.70
2018-06-17T16:32:46.228Z,20.40
2018-06-17T16:37:42.530Z,20.10
2018-06-17T16:40:10.864Z,20.20
2018-06-17T16:42:39.136Z,20.40
2018-06-17T16:45:07.419Z,20.30
2018-06-17T16:47:35.705Z,20.40
2018-06-17T16:50:04.143Z,20.30
2018-06-17T16:52:37.883Z,20.30
2018-06-17T16:55:11.921Z,20.30
2018-06-17T16:57:45.694Z,20.30
2018-06-17T17:00:16.549Z,20.30
2018-06-17T17:02:45.325Z,20.30
2018-06-17T17:05:19.862Z,20.20
2018-06-17T17:07:48.147Z,19.90
2018-06-17T17:10:17.211Z,20.00
2018-06-17T17:12:45.481Z,20.30
2018-06-17T17:15:13.803Z,20.40
2018-06-17T17:17:42.142Z,20.40
2018-06-17T17:20:10.443Z,20.20
2018-06-17T17:22:38.732Z,20.30
2018-06-17T17:25:07.108Z,20.20
2018-06-17T17:27:35.483Z,20.40
2018-06-17T17:30:03.966Z,20.30
2018-06-17T17:32:37.883Z,20.20
2018-06-17T17:35:11.859Z,20.20
2018-06-17T17:37:45.726Z,20.30
2018-06-17T17:40:19.359Z,20.30
2018-06-17T17:42:47.668Z,20.30
2018-06-17T17:45:17.598Z,20.30
2018-06-17T17:47:45.980Z,20.10
2018-06-17T17:50:14.232Z,20.00
2018-06-17T17:52:42.627Z,20.20
2018-06-17T17:55:10.891Z,20.30
2018-06-17T17:57:39.216Z,20.30
2018-06-17T18:00:07.830Z,20.40
2018-06-17T18:02:36.061Z,20.30
2018-06-17T18:05:04.599Z,20.30
2018-06-17T18:07:32.972Z,20.30
2018-06-17T18:10:01.295Z,20.40
2018-06-17T18:12:29.657Z,20.20
2018-06-17T18:14:58.351Z,20.30
2018-06-17T18:17:26.699Z,20.30
2018-06-17T18:19:55.103Z,20.20
2018-06-17T18:22:23.426Z,20.20
2018-06-17T18:24:57.392Z,20.20
2018-06-17T18:27:31.479Z,20.30
2018-06-17T18:30:05.619Z,20.10
2018-06-17T18:32:39.473Z,20.00
2018-06-17T18:35:18.552Z,19.80
2018-06-17T18:37:47.233Z,19.80
2018-06-17T18:40:15.740Z,19.90
2018-06-17T18:42:44.092Z,19.80
2018-06-17T18:47:40.416Z,19.70
2018-06-17T18:50:08.743Z,19.60
2018-06-17T18:52:37.143Z,19.70
2018-06-17T18:57:33.731Z,19.50
2018-06-17T19:00:02.076Z,19.60
2018-06-17T19:02:30.385Z,19.70
2018-06-17T19:04:58.688Z,19.70
2018-06-17T19:07:27.014Z,19.70
2018-06-17T19:10:00.834Z,19.70
2018-06-17T19:12:34.600Z,19.70
2018-06-17T19:17:41.812Z,19.70
2018-06-17T19:20:10.225Z,19.60
2018-06-17T19:22:39.898Z,19.50
2018-06-17T19:27:36.311Z,19.50
2018-06-17T19:30:04.891Z,19.50
2018-06-17T19:32:33.513Z,19.50
2018-06-17T19:35:01.841Z,19.50
2018-06-17T19:37:30.186Z,19.40
2018-06-17T19:39:58.468Z,19.30
2018-06-17T19:42:26.912Z,19.30
2018-06-17T19:44:55.327Z,19.20
2018-06-17T19:47:23.934Z,19.20
2018-06-17T19:49:57.774Z,19.20
2018-06-17T19:52:31.536Z,19.10
2018-06-17T19:55:05.251Z,19.00
2018-06-17T19:57:38.788Z,19.00
2018-06-17T20:00:12.468Z,18.90
2018-06-17T20:02:40.864Z,18.90
2018-06-17T20:10:06.326Z,18.70
2018-06-17T20:15:02.821Z,18.70
2018-06-17T20:17:31.141Z,18.80
2018-06-17T20:19:59.450Z,18.90
2018-06-17T20:22:27.780Z,19.00
2018-06-17T20:24:56.058Z,19.00
2018-06-17T20:27:24.325Z,19.00
2018-06-17T20:29:52.611Z,19.00
2018-06-17T20:33:24.847Z,19.10
2018-06-17T20:35:58.945Z,19.10
2018-06-17T20:38:32.593Z,19.10
2018-06-17T20:41:06.218Z,19.20
2018-06-17T20:43:39.771Z,19.20
2018-06-17T20:46:08.052Z,19.20
2018-06-17T20:48:36.351Z,19.20
2018-06-17T20:51:04.652Z,19.20
2018-06-17T20:53:32.946Z,19.20
2018-06-17T20:56:01.258Z,19.30
2018-06-17T20:58:29.468Z,19.30
2018-06-17T21:00:57.761Z,19.30
2018-06-17T21:03:26.007Z,19.30
2018-06-17T21:05:54.930Z,19.30
2018-06-17T21:08:23.223Z,19.40
2018-06-17T21:10:51.635Z,19.40
2018-06-17T21:13:20.199Z,19.40
2018-06-17T21:15:48.452Z,19.40
2018-06-17T21:18:22.261Z,19.30
2018-06-17T21:23:29.097Z,19.40
2018-06-17T21:26:02.849Z,19.40
2018-06-17T21:30:59.192Z,19.30
2018-06-17T21:33:27.467Z,19.30
2018-06-17T21:35:55.736Z,19.30
2018-06-17T21:38:23.976Z,19.30
2018-06-17T21:40:52.248Z,19.30
2018-06-17T21:43:20.547Z,19.40
2018-06-17T21:45:48.844Z,19.40
2018-06-17T21:48:17.124Z,19.40
2018-06-17T21:50:45.380Z,19.40
2018-06-17T21:53:13.690Z,19.40
2018-06-17T21:55:41.947Z,19.40
2018-06-17T21:58:10.188Z,19.30
2018-06-17T22:00:38.515Z,19.30
2018-06-17T22:03:06.797Z,19.40
2018-06-17T22:08:08.405Z,19.10
2018-06-17T22:10:41.998Z,19.10
2018-06-17T22:13:10.255Z,19.10
2018-06-17T22:15:43.976Z,19.10
2018-06-17T22:18:12.255Z,19.20
2018-06-17T22:20:40.487Z,19.20
2018-06-17T22:23:08.722Z,19.20
2018-06-17T22:25:36.982Z,19.20
2018-06-17T22:28:05.252Z,19.10
2018-06-17T22:30:33.605Z,19.10
2018-06-17T22:33:01.965Z,19.00
2018-06-17T22:35:30.243Z,19.00
2018-06-17T22:40:26.569Z,18.70
2018-06-17T22:42:54.858Z,18.70
2018-06-17T22:45:23.111Z,18.70
2018-06-17T22:47:59.490Z,18.80
2018-06-17T22:50:27.998Z,18.80
2018-06-17T22:55:29.943Z,18.80
2018-06-17T22:58:03.687Z,18.80
2018-06-17T23:03:11.165Z,18.80
2018-06-17T23:05:44.758Z,18.80
2018-06-17T23:08:18.563Z,18.80
2018-06-17T23:10:46.747Z,18.80
2018-06-17T23:13:15.013Z,18.80
2018-06-17T23:15:43.272Z,18.80
2018-06-17T23:18:11.561Z,18.60
2018-06-17T23:20:39.782Z,18.70
2018-06-17T23:23:08.054Z,18.70
2018-06-17T23:25:36.319Z,18.70
2018-06-17T23:28:04.597Z,18.70
2018-06-17T23:30:32.867Z,18.70
2018-06-17T23:33:01.143Z,18.70
2018-06-17T23:35:29.489Z,18.70
2018-06-17T23:37:57.793Z,18.70
2018-06-17T23:40:26.044Z,18.80
2018-06-17T23:42:54.322Z,18.80
2018-06-17T23:45:22.563Z,18.80
2018-06-17T23:47:56.469Z,18.70
2018-06-17T23:50:30.208Z,18.70
2018-06-17T23:53:03.799Z,18.60
2018-06-17T23:55:37.480Z,18.60
2018-06-17T23:58:05.815Z,18.70
